Terminal Aerodrome Forecast
Issued by NWS

Home | Current Version | Previous Version | Text Only | Print | Product List | Glossary On
Versions: 1 2 3 4 5 6 7 8 9 10 11 12 13 14
000
FTAK31 PAJN 251240 AAA
TAFAJN
TAF AMD
PAJN 251240Z 2513/2612 VRB03KT P6SM -SHRA FEW001 SCT009 OVC060
      TEMPO 2513/2517 SCT001 BKN009 OVC060
     FM260200 23006KT P6SM VCSH BKN025 OVC040=

USA.gov is the U.S. government's official web portal to all federal, state and local government web resources and services.